Time;durP1;ratioP1;P1;durP2;ratioP2;P2;SDS_P1;SDS_P2;PMS_P1;PMS_P2;Temp;Humidity;BMP_temperature;BMP_pressure;BME280_temperature;BME280_humidity;BME280_pressure;Samples;Min_cycle;Max_cycle;Signal;HPM_P1;HPM_P2
2021/12/04 00:02:25;;;;;;;6.30;4.07;;;4.30;99.90;;;;;;5075411;28;20099;-67
2021/12/04 00:04:53;;;;;;;5.18;4.68;;;4.30;99.90;;;;;;5058434;28;20025;-67
2021/12/04 00:07:21;;;;;;;10.85;5.35;;;4.30;99.90;;;;;;5076438;28;20021;-67
2021/12/04 00:09:50;;;;;;;6.97;5.65;;;4.30;99.90;;;;;;5075248;28;20021;-67
2021/12/04 00:12:16;;;;;;;11.07;4.90;;;4.30;99.90;;;;;;5074799;28;20025;-67
2021/12/04 00:14:42;;;;;;;7.88;4.90;;;4.30;99.90;;;;;;5075200;28;20024;-67
2021/12/04 00:17:08;;;;;;;9.30;5.38;;;4.30;99.90;;;;;;5058183;28;20035;-67
2021/12/04 00:19:34;;;;;;;9.20;4.90;;;4.20;99.90;;;;;;5058086;28;20024;-67
2021/12/04 00:22:00;;;;;;;7.40;4.82;;;4.30;99.90;;;;;;5075043;28;20078;-67
2021/12/04 00:24:27;;;;;;;7.90;4.88;;;4.20;99.90;;;;;;5057951;28;20033;-67
2021/12/04 00:26:53;;;;;;;5.75;4.65;;;4.30;99.90;;;;;;5057898;28;20051;-67
2021/12/04 00:29:19;;;;;;;7.07;4.80;;;4.30;99.90;;;;;;5074442;28;20028;-67
2021/12/04 00:31:49;;;;;;;5.97;4.75;;;4.20;99.90;;;;;;5074781;28;20036;-67
2021/12/04 00:34:17;;;;;;;5.97;4.72;;;4.20;99.90;;;;;;5075257;28;20437;-67
2021/12/04 00:50:24;;;;;;;5.22;4.18;;;4.30;99.90;;;;;;5111109;28;20031;-66
2021/12/04 00:52:49;;;;;;;6.43;4.20;;;4.30;99.90;;;;;;5110538;28;20483;-66
2021/12/04 00:55:15;;;;;;;5.75;4.15;;;4.30;99.90;;;;;;5110538;28;20077;-66
2021/12/04 00:57:40;;;;;;;5.85;3.92;;;4.30;99.90;;;;;;5110162;28;20489;-66
2021/12/04 01:00:07;;;;;;;7.20;4.53;;;4.30;99.90;;;;;;5092866;28;20046;-66
2021/12/04 01:02:32;;;;;;;4.80;4.30;;;4.30;99.90;;;;;;5111566;28;20012;-66
2021/12/04 01:04:58;;;;;;;6.97;4.68;;;4.40;99.90;;;;;;5110939;28;20069;-66
2021/12/04 01:07:25;;;;;;;5.95;4.15;;;4.40;99.90;;;;;;5109732;28;20040;-66
2021/12/04 01:09:51;;;;;;;5.13;4.18;;;4.40;99.90;;;;;;5110335;28;20495;-66
2021/12/04 01:12:17;;;;;;;6.13;4.65;;;4.40;99.90;;;;;;5110257;28;20050;-67
2021/12/04 01:14:43;;;;;;;5.38;4.43;;;4.40;99.90;;;;;;5110133;28;20031;-67
2021/12/04 01:17:08;;;;;;;6.20;4.13;;;4.40;99.90;;;;;;5092518;28;20369;-66
2021/12/04 01:19:36;;;;;;;5.53;3.95;;;4.40;99.90;;;;;;5110098;28;20023;-66
2021/12/04 01:22:03;;;;;;;5.75;4.30;;;4.40;99.90;;;;;;5109820;28;20042;-66
2021/12/04 01:24:28;;;;;;;6.05;4.00;;;4.40;99.90;;;;;;5110045;28;20016;-66
2021/12/04 01:26:54;;;;;;;4.85;4.13;;;4.40;99.90;;;;;;5092398;28;20031;-66
2021/12/04 01:29:20;;;;;;;7.68;5.20;;;4.40;99.90;;;;;;5109382;28;20045;-66
2021/12/04 01:31:46;;;;;;;6.57;5.07;;;4.40;99.90;;;;;;5109172;28;20031;-66
2021/12/04 01:34:13;;;;;;;9.80;5.65;;;4.30;99.90;;;;;;5109530;28;20069;-66
2021/12/04 01:36:38;;;;;;;8.60;5.40;;;4.30;99.90;;;;;;5092176;28;20023;-66
2021/12/04 01:39:05;;;;;;;7.18;5.90;;;4.20;99.90;;;;;;5108843;28;20093;-66
2021/12/04 01:41:33;;;;;;;7.50;6.10;;;4.10;99.90;;;;;;5110863;28;20052;-66
2021/12/04 01:44:00;;;;;;;9.40;6.15;;;4.10;99.90;;;;;;5092161;28;20020;-66
2021/12/04 01:46:27;;;;;;;12.10;6.82;;;4.10;99.90;;;;;;5091945;28;20048;-66
2021/12/04 01:48:52;;;;;;;9.52;7.10;;;4.00;99.90;;;;;;5088760;28;20026;-66
2021/12/04 01:51:18;;;;;;;8.48;6.72;;;4.00;99.90;;;;;;5095237;28;20115;-66
2021/12/04 01:53:43;;;;;;;8.27;6.30;;;4.00;99.90;;;;;;5095311;28;20550;-66
2021/12/04 01:56:09;;;;;;;10.15;6.70;;;4.00;99.90;;;;;;5096676;28;20453;-66
2021/12/04 01:58:36;;;;;;;8.45;7.00;;;4.00;99.90;;;;;;5095137;28;20374;-67
2021/12/04 02:01:02;;;;;;;11.02;7.03;;;4.00;99.90;;;;;;5096872;28;20017;-66
2021/12/04 02:03:27;;;;;;;7.95;6.25;;;4.00;99.90;;;;;;5078140;28;20181;-66
2021/12/04 02:05:53;;;;;;;8.95;6.65;;;4.00;99.90;;;;;;5095633;28;20025;-66
2021/12/04 02:08:21;;;;;;;8.30;7.00;;;4.10;99.90;;;;;;5078062;28;20024;-66
2021/12/04 02:10:48;;;;;;;7.82;6.18;;;4.00;99.90;;;;;;5078050;28;20039;-66
2021/12/04 02:13:15;;;;;;;8.82;6.38;;;4.00;99.90;;;;;;5095196;28;20078;-66
2021/12/04 02:15:42;;;;;;;8.20;6.72;;;4.00;99.90;;;;;;5096365;28;20027;-66
2021/12/04 02:18:08;;;;;;;7.55;5.97;;;4.00;99.90;;;;;;5095921;28;20030;-67
2021/12/04 02:20:34;;;;;;;8.30;6.32;;;4.00;99.90;;;;;;5078031;28;20123;-66
2021/12/04 02:23:02;;;;;;;7.88;6.13;;;4.00;99.90;;;;;;5077761;28;20027;-66
2021/12/04 02:25:27;;;;;;;8.32;6.50;;;4.00;99.90;;;;;;5094711;28;20465;-67
2021/12/04 02:27:53;;;;;;;12.10;6.03;;;4.00;99.90;;;;;;5094951;28;20036;-66
2021/12/04 02:30:23;;;;;;;9.13;5.90;;;4.00;99.90;;;;;;5094532;28;20504;-66
2021/12/04 02:32:49;;;;;;;8.20;6.10;;;4.10;99.90;;;;;;5096280;28;20016;-67
2021/12/04 02:35:16;;;;;;;8.45;5.55;;;4.00;99.90;;;;;;5095933;28;20020;-66
2021/12/04 02:37:43;;;;;;;6.63;5.72;;;4.10;99.90;;;;;;5095750;28;20044;-67
2021/12/04 02:40:11;;;;;;;7.97;6.10;;;4.00;99.90;;;;;;5096105;28;20016;-67
2021/12/04 02:42:38;;;;;;;7.35;5.75;;;4.10;99.90;;;;;;5094297;28;20016;-67
2021/12/04 02:45:07;;;;;;;8.27;6.18;;;4.10;99.90;;;;;;5094236;28;20028;-67
2021/12/04 02:47:33;;;;;;;8.55;6.25;;;4.10;99.90;;;;;;5077345;28;20026;-67
2021/12/04 02:49:58;;;;;;;6.82;5.63;;;4.10;99.90;;;;;;5094514;28;20021;-67
2021/12/04 02:52:25;;;;;;;7.22;5.40;;;4.10;99.90;;;;;;5077761;28;20115;-67
2021/12/04 02:54:51;;;;;;;6.95;5.40;;;4.10;99.90;;;;;;5095857;28;20020;-67
2021/12/04 02:57:20;;;;;;;6.70;5.78;;;4.10;99.90;;;;;;5095697;28;20032;-67
2021/12/04 02:59:46;;;;;;;6.35;5.32;;;4.10;99.90;;;;;;5093971;28;20107;-66
2021/12/04 03:02:17;;;;;;;7.20;5.40;;;4.10;99.90;;;;;;5094736;28;20051;-67
2021/12/04 03:04:45;;;;;;;6.70;5.55;;;4.10;99.90;;;;;;5094581;28;20081;-67
2021/12/04 03:07:11;;;;;;;9.18;5.93;;;4.10;99.90;;;;;;5093854;28;20408;-67
2021/12/04 03:09:37;;;;;;;6.88;5.55;;;4.10;99.90;;;;;;5095311;28;20024;-67
2021/12/04 03:12:04;;;;;;;9.45;5.90;;;4.10;99.90;;;;;;5093708;28;20451;-67
2021/12/04 03:14:31;;;;;;;9.35;5.80;;;4.10;99.90;;;;;;5093678;28;20027;-67
2021/12/04 03:16:57;;;;;;;8.77;6.35;;;4.10;99.90;;;;;;5094282;28;20467;-67
2021/12/04 03:19:23;;;;;;;9.57;6.22;;;4.10;99.90;;;;;;5093898;28;20035;-67
2021/12/04 03:21:48;;;;;;;8.02;6.35;;;4.10;99.90;;;;;;5076622;28;20024;-67
2021/12/04 03:24:16;;;;;;;7.53;6.10;;;4.10;99.90;;;;;;5093855;28;20039;-67
2021/12/04 03:26:43;;;;;;;8.20;6.22;;;4.10;99.90;;;;;;5076853;28;20022;-67
2021/12/04 03:29:12;;;;;;;7.78;5.80;;;4.10;99.90;;;;;;5093727;28;20074;-67
2021/12/04 03:32:23;;;;;;;8.68;6.13;;;4.10;99.90;;;;;;5094005;28;20024;-67
2021/12/04 03:40:05;;;;;;;7.93;6.00;;;4.00;99.90;;;;;;5093315;28;20488;-67
2021/12/04 03:42:31;;;;;;;8.57;6.15;;;4.00;99.90;;;;;;5093879;28;20517;-67
2021/12/04 03:44:57;;;;;;;8.55;6.90;;;4.00;99.90;;;;;;5093426;28;20365;-67
2021/12/04 03:47:23;;;;;;;9.98;7.32;;;4.00;99.90;;;;;;5093305;28;20077;-67
2021/12/04 03:49:49;;;;;;;11.60;8.30;;;4.00;99.90;;;;;;5093356;28;20098;-67
2021/12/04 03:52:15;;;;;;;10.10;7.53;;;4.00;99.90;;;;;;5092909;28;20074;-67
2021/12/04 03:54:41;;;;;;;9.90;7.65;;;4.00;99.90;;;;;;5076070;28;20024;-67
2021/12/04 03:57:08;;;;;;;9.93;7.55;;;4.00;99.90;;;;;;5094585;28;20449;-66
2021/12/04 03:59:36;;;;;;;13.82;8.77;;;4.00;99.90;;;;;;5094416;28;20020;-66
2021/12/04 04:02:04;;;;;;;10.38;7.70;;;4.00;99.90;;;;;;5093145;28;20020;-67
2021/12/04 04:04:31;;;;;;;11.85;8.80;;;4.00;99.90;;;;;;5094564;28;20020;-67
2021/12/04 04:06:59;;;;;;;14.02;8.55;;;4.00;99.90;;;;;;5075842;28;20032;-66
2021/12/04 04:09:25;;;;;;;12.40;8.68;;;4.00;99.90;;;;;;5076127;28;20054;-66
2021/12/04 04:11:51;;;;;;;13.00;8.50;;;4.00;99.90;;;;;;5093660;28;20035;-67
2021/12/04 04:14:17;;;;;;;12.07;8.52;;;4.00;99.90;;;;;;5092984;28;20024;-67
2021/12/04 04:16:42;;;;;;;14.52;8.63;;;4.00;99.90;;;;;;5093823;28;20412;-66
2021/12/04 04:19:09;;;;;;;11.90;8.40;;;4.00;99.90;;;;;;5076531;28;20032;-67
2021/12/04 04:21:39;;;;;;;13.05;8.88;;;4.00;99.90;;;;;;5075834;28;20484;-66
2021/12/04 04:24:08;;;;;;;12.55;7.80;;;4.00;99.90;;;;;;5092500;28;20020;-66
2021/12/04 04:26:33;;;;;;;12.88;8.60;;;4.00;99.90;;;;;;5092995;28;20123;-66
2021/12/04 04:28:59;;;;;;;10.30;7.88;;;4.00;99.90;;;;;;5093093;28;20059;-67
2021/12/04 04:31:25;;;;;;;10.13;7.38;;;4.00;99.90;;;;;;5093016;28;20035;-67
2021/12/04 04:33:56;;;;;;;10.55;8.25;;;4.00;99.90;;;;;;5092725;28;20054;-67
2021/12/04 04:36:44;;;;;;;10.95;7.63;;;4.00;99.90;;;;;;5092355;28;20032;-67
2021/12/04 04:58:47;;;;;;;12.55;8.88;;;4.10;99.90;;;;;;5110057;28;20032;-66
2021/12/04 05:12:30;;;;;;;14.23;10.25;;;4.10;99.90;;;;;;5109785;28;20027;-67
2021/12/04 05:14:46;;;;;;;15.55;10.50;;;4.10;99.90;;;;;;5109748;28;20030;-67
2021/12/04 05:17:14;;;;;;;14.45;10.13;;;4.10;99.90;;;;;;5111069;28;20433;-66
2021/12/04 05:19:45;;;;;;;14.32;9.52;;;4.20;99.90;;;;;;5111227;28;20051;-66
2021/12/04 05:22:13;;;;;;;13.23;9.60;;;4.20;99.90;;;;;;5109568;28;20028;-66
2021/12/04 05:24:40;;;;;;;11.13;9.02;;;4.20;99.90;;;;;;5110928;28;20024;-66
2021/12/04 05:27:06;;;;;;;11.82;9.40;;;4.20;99.90;;;;;;5109327;28;20026;-66
2021/12/04 05:29:32;;;;;;;10.88;8.93;;;4.20;99.90;;;;;;5092443;28;20103;-67
2021/12/04 05:31:58;;;;;;;13.60;8.65;;;4.20;99.90;;;;;;5109246;28;20473;-67
2021/12/04 05:34:23;;;;;;;10.57;8.45;;;4.20;99.90;;;;;;5109237;28;20024;-67
2021/12/04 05:36:49;;;;;;;12.00;8.48;;;4.20;99.90;;;;;;5109148;28;20112;-66
2021/12/04 05:39:14;;;;;;;9.52;7.57;;;4.20;99.90;;;;;;5110945;28;20058;-67
2021/12/04 05:41:40;;;;;;;10.50;7.68;;;4.20;99.90;;;;;;5108954;28;20036;-65
2021/12/04 05:44:09;;;;;;;10.60;7.93;;;4.20;99.90;;;;;;5092033;28;20023;-67
2021/12/04 05:46:40;;;;;;;9.75;7.30;;;4.30;99.90;;;;;;5109380;28;20453;-66
2021/12/04 05:49:13;;;;;;;8.73;6.95;;;4.20;99.90;;;;;;5108906;28;20521;-65
2021/12/04 05:52:18;;;;;;;10.70;6.95;;;4.30;99.90;;;;;;5105085;28;20122;-67
2021/12/04 05:57:17;;;;;;;7.85;6.18;;;4.30;99.90;;;;;;5112286;27;20380;-67
2021/12/04 05:59:42;;;;;;;7.90;6.55;;;4.30;99.90;;;;;;5110523;28;20431;-66
2021/12/04 06:02:08;;;;;;;8.48;6.53;;;4.30;99.90;;;;;;5110904;28;20358;-66
2021/12/04 06:04:34;;;;;;;9.05;6.28;;;4.30;99.90;;;;;;5111889;28;20530;-66
2021/12/04 06:06:59;;;;;;;8.82;6.30;;;4.40;99.90;;;;;;5110842;28;20024;-66
2021/12/04 06:09:25;;;;;;;7.97;6.70;;;4.40;99.90;;;;;;5110053;28;20438;-67
2021/12/04 06:11:50;;;;;;;7.82;6.00;;;4.40;99.90;;;;;;5092883;28;20523;-66
2021/12/04 06:14:16;;;;;;;8.27;6.20;;;4.40;99.90;;;;;;5111415;28;20477;-66
2021/12/04 06:16:41;;;;;;;7.70;6.55;;;4.40;99.90;;;;;;5109764;28;20038;-66
2021/12/04 06:19:13;;;;;;;10.38;6.22;;;4.40;99.90;;;;;;5109879;28;20060;-66
2021/12/04 06:24:25;;;;;;;11.90;7.38;;;4.40;99.90;;;;;;5109747;28;20016;-66
2021/12/04 06:26:50;;;;;;;8.75;7.00;;;4.40;99.90;;;;;;5110005;28;20361;-66
2021/12/04 06:29:16;;;;;;;7.78;6.38;;;4.40;99.90;;;;;;5111389;28;20039;-66
2021/12/04 06:31:41;;;;;;;8.88;6.75;;;4.40;99.90;;;;;;5109920;28;20154;-66
2021/12/04 06:34:07;;;;;;;8.85;6.75;;;4.40;99.90;;;;;;5110158;28;20372;-66
2021/12/04 06:36:34;;;;;;;9.68;6.88;;;4.40;99.90;;;;;;5092419;28;20073;-66
2021/12/04 06:39:00;;;;;;;11.85;7.28;;;4.40;99.90;;;;;;5092614;28;20024;-66
2021/12/04 06:41:25;;;;;;;9.85;6.95;;;4.40;99.90;;;;;;5110044;28;20030;-66
2021/12/04 06:43:52;;;;;;;8.88;7.40;;;4.40;99.90;;;;;;5109987;28;20058;-66
2021/12/04 06:46:20;;;;;;;10.98;7.65;;;4.30;99.90;;;;;;5109266;28;20115;-66
2021/12/04 06:49:01;;;;;;;11.60;7.57;;;4.30;99.90;;;;;;5109632;28;20119;-66
2021/12/04 06:51:33;;;;;;;11.10;7.00;;;4.30;99.90;;;;;;5111281;28;20471;-66
2021/12/04 06:54:05;;;;;;;10.85;8.45;;;4.30;99.90;;;;;;5109557;28;20157;-66
2021/12/04 06:56:34;;;;;;;12.45;7.35;;;4.30;99.90;;;;;;5108841;28;20071;-66
2021/12/04 06:59:05;;;;;;;11.75;8.13;;;4.30;99.90;;;;;;5109023;28;20020;-66
2021/12/04 07:01:30;;;;;;;9.93;7.22;;;4.30;99.90;;;;;;5109657;28;20418;-66
2021/12/04 07:03:56;;;;;;;11.27;8.55;;;4.30;99.90;;;;;;5109599;28;20020;-66
2021/12/04 07:06:22;;;;;;;11.32;7.90;;;4.30;99.90;;;;;;5109226;28;20049;-66
2021/12/04 07:08:47;;;;;;;10.82;8.38;;;4.30;99.90;;;;;;5077841;28;20032;-67
2021/12/04 07:11:13;;;;;;;13.52;8.45;;;4.30;99.90;;;;;;5078343;28;20547;-66
2021/12/04 07:13:38;;;;;;;11.73;8.40;;;4.30;99.90;;;;;;5095271;28;20036;-66
2021/12/04 07:16:05;;;;;;;13.85;9.25;;;4.30;99.90;;;;;;5078252;28;20111;-66
2021/12/04 07:18:33;;;;;;;10.93;8.15;;;4.30;99.90;;;;;;5096318;28;20465;-67
2021/12/04 07:20:59;;;;;;;12.68;8.55;;;4.30;99.90;;;;;;5095151;28;20024;-67
2021/12/04 07:23:24;;;;;;;14.40;8.98;;;4.30;99.90;;;;;;5095379;28;20154;-67
2021/12/04 07:25:50;;;;;;;12.88;8.98;;;4.30;99.90;;;;;;5095408;28;20471;-66
2021/12/04 07:28:16;;;;;;;10.73;8.18;;;4.30;99.90;;;;;;5078025;28;20487;-65
2021/12/04 07:30:41;;;;;;;10.77;8.27;;;4.30;99.90;;;;;;5077947;28;20465;-65
2021/12/04 07:33:07;;;;;;;13.52;9.40;;;4.30;99.90;;;;;;5077968;28;20024;-65
2021/12/04 07:35:32;;;;;;;13.52;9.07;;;4.30;99.90;;;;;;5095036;28;20101;-64
2021/12/04 07:38:00;;;;;;;14.13;9.52;;;4.30;99.90;;;;;;5096506;28;20043;-65
2021/12/04 07:40:26;;;;;;;12.00;9.18;;;4.30;99.90;;;;;;5078110;28;20384;-65
2021/12/04 07:42:52;;;;;;;14.00;9.82;;;4.30;99.90;;;;;;5096448;28;20047;-65
2021/12/04 07:45:18;;;;;;;11.52;8.73;;;4.30;99.90;;;;;;5096323;28;20164;-65
2021/12/04 07:47:44;;;;;;;16.60;10.10;;;4.30;99.90;;;;;;5094854;28;20049;-65
2021/12/04 07:50:10;;;;;;;12.07;8.98;;;4.30;99.90;;;;;;5096288;28;20020;-65
2021/12/04 07:52:37;;;;;;;13.77;9.00;;;4.40;99.90;;;;;;5094792;28;20039;-65
2021/12/04 07:55:05;;;;;;;13.68;9.52;;;4.40;99.90;;;;;;5095579;28;20016;-66
2021/12/04 07:57:30;;;;;;;15.45;9.50;;;4.40;99.90;;;;;;5095603;28;20020;-66
2021/12/04 07:59:56;;;;;;;13.52;9.25;;;4.40;99.90;;;;;;5094223;28;20069;-66
2021/12/04 08:02:22;;;;;;;12.38;8.93;;;4.40;99.90;;;;;;5094184;28;20405;-66
2021/12/04 08:04:47;;;;;;;13.35;9.45;;;4.50;99.90;;;;;;5077277;28;20416;-65
2021/12/04 08:07:13;;;;;;;14.32;9.27;;;4.50;99.90;;;;;;5077276;28;20031;-67
2021/12/04 08:09:39;;;;;;;14.70;9.57;;;4.50;99.90;;;;;;5095828;28;20456;-67
2021/12/04 08:12:04;;;;;;;14.10;9.98;;;4.50;99.90;;;;;;5095563;28;20024;-67
2021/12/04 08:14:30;;;;;;;14.35;9.38;;;4.50;99.90;;;;;;5077132;28;20028;-66
2021/12/04 08:16:56;;;;;;;14.18;9.75;;;4.50;99.90;;;;;;5093848;28;20377;-66
2021/12/04 08:19:21;;;;;;;14.93;10.02;;;4.60;99.90;;;;;;5094436;28;20062;-66
2021/12/04 08:21:47;;;;;;;13.75;9.88;;;4.60;99.90;;;;;;5076951;28;20025;-67
2021/12/04 08:24:12;;;;;;;12.68;9.15;;;4.60;99.90;;;;;;5077474;28;20028;-66
2021/12/04 08:26:39;;;;;;;13.60;9.60;;;4.60;99.90;;;;;;5094107;28;20032;-66
2021/12/04 08:29:06;;;;;;;13.68;9.18;;;4.60;99.90;;;;;;5093847;28;20024;-66
2021/12/04 08:31:32;;;;;;;12.05;8.90;;;4.70;99.90;;;;;;5094014;28;20421;-66
2021/12/04 08:33:58;;;;;;;13.20;9.50;;;4.70;99.90;;;;;;5076763;28;20069;-66
2021/12/04 08:36:24;;;;;;;13.25;9.30;;;4.70;99.90;;;;;;5093533;28;20066;-66
2021/12/04 08:38:50;;;;;;;12.75;8.95;;;4.70;99.90;;;;;;5093445;28;20020;-66
2021/12/04 08:41:17;;;;;;;11.93;8.85;;;4.80;99.90;;;;;;5076544;28;20020;-66
2021/12/04 08:43:43;;;;;;;14.57;9.90;;;4.80;99.90;;;;;;5093803;28;20035;-66
2021/12/04 08:46:09;;;;;;;12.45;9.10;;;4.80;99.90;;;;;;5077063;28;20031;-66
2021/12/04 08:48:35;;;;;;;14.60;9.80;;;4.80;99.90;;;;;;5076449;28;20024;-66
2021/12/04 08:51:01;;;;;;;12.10;9.27;;;4.80;99.90;;;;;;5093185;28;20089;-67
2021/12/04 08:53:27;;;;;;;12.63;8.65;;;4.90;99.90;;;;;;5093211;28;20123;-66
2021/12/04 08:55:53;;;;;;;11.98;9.15;;;4.90;99.90;;;;;;5093124;28;20040;-67
2021/12/04 08:58:20;;;;;;;13.27;9.15;;;5.00;99.90;;;;;;5094858;28;20109;-67
2021/12/04 09:00:51;;;;;;;13.90;9.65;;;4.90;99.90;;;;;;5093402;28;20031;-66
2021/12/04 09:03:20;;;;;;;12.38;9.60;;;5.00;99.90;;;;;;5076215;28;20022;-66
2021/12/04 09:05:46;;;;;;;13.52;9.45;;;5.00;99.90;;;;;;5092954;28;20035;-66
2021/12/04 09:08:11;;;;;;;13.23;9.80;;;5.00;99.90;;;;;;5093002;28;20427;-66
2021/12/04 09:10:42;;;;;;;14.07;10.00;;;5.00;99.90;;;;;;5076033;28;20024;-66
2021/12/04 09:13:09;;;;;;;16.88;10.95;;;5.00;99.90;;;;;;5076577;28;20532;-66
2021/12/04 09:15:36;;;;;;;14.90;10.90;;;5.00;99.90;;;;;;5076147;28;20440;-66
2021/12/04 09:18:03;;;;;;;15.68;10.60;;;5.00;99.90;;;;;;5076109;28;20024;-66
2021/12/04 09:20:30;;;;;;;15.32;10.88;;;5.00;99.90;;;;;;5094357;28;20023;-67
2021/12/04 09:22:57;;;;;;;20.35;11.43;;;5.10;99.90;;;;;;5093101;28;20405;-66
2021/12/04 09:25:26;;;;;;;14.35;11.07;;;5.20;99.90;;;;;;5093359;28;20066;-66
2021/12/04 09:28:18;;;;;;;13.10;10.30;;;5.10;99.90;;;;;;5076185;28;20031;-66
2021/12/04 09:33:58;;;;;;;12.68;9.38;;;5.20;99.90;;;;;;5071581;28;20445;-66
2021/12/04 10:01:10;;;;;;;10.20;7.72;;;5.80;99.90;;;;;;5070141;28;20078;-66
2021/12/04 10:06:36;;;;;;;11.57;8.52;;;5.70;99.90;;;;;;5069059;28;20024;-66
2021/12/04 10:12:37;;;;;;;11.50;8.90;;;5.80;99.90;;;;;;5069894;28;20064;-66
2021/12/04 10:20:08;;;;;;;12.90;7.93;;;5.70;99.90;;;;;;5069684;28;20029;-66
2021/12/04 10:22:41;;;;;;;10.18;8.38;;;5.60;99.90;;;;;;5068579;28;20024;-66
2021/12/04 10:33:38;;;;;;;13.57;9.10;;;5.50;99.90;;;;;;5110211;28;20020;-67
2021/12/04 10:36:04;;;;;;;10.73;8.02;;;5.50;99.90;;;;;;5110059;28;20028;-66
2021/12/04 10:38:37;;;;;;;13.55;8.68;;;5.50;99.90;;;;;;5110270;28;20030;-66
2021/12/04 10:41:04;;;;;;;10.70;7.82;;;5.60;99.90;;;;;;5111716;28;20050;-66
2021/12/04 10:43:31;;;;;;;10.00;7.45;;;5.70;99.90;;;;;;5110735;28;20020;-66
2021/12/04 10:46:00;;;;;;;13.80;8.10;;;5.70;99.90;;;;;;5109713;28;20366;-66
2021/12/04 10:48:29;;;;;;;8.73;6.90;;;5.80;99.90;;;;;;5092827;28;20362;-66
2021/12/04 10:51:06;;;;;;;10.15;7.68;;;5.80;99.90;;;;;;5111429;28;20020;-66
2021/12/04 10:53:37;;;;;;;10.48;7.43;;;5.90;99.90;;;;;;5109859;28;20119;-66
2021/12/04 11:04:27;;;;;;;7.53;6.03;;;5.90;99.90;;;;;;5069586;28;20541;-66
2021/12/04 11:07:15;;;;;;;7.90;5.60;;;6.00;99.90;;;;;;5070176;28;20028;-66
2021/12/04 11:24:34;;;;;;;6.13;5.13;;;6.20;99.90;;;;;;5069269;28;20024;-66
2021/12/04 11:26:47;;;;;;;7.45;6.05;;;6.20;99.90;;;;;;5069184;28;20029;-66
2021/12/04 11:36:01;;;;;;;7.40;5.07;;;6.00;99.90;;;;;;5069997;28;20029;-66
2021/12/04 11:40:31;;;;;;;5.80;5.20;;;6.10;99.90;;;;;;5069825;28;20024;-66
2021/12/04 11:43:04;;;;;;;5.90;4.82;;;6.10;99.90;;;;;;5069188;28;20017;-66
2021/12/04 11:45:46;;;;;;;7.60;4.93;;;6.20;99.90;;;;;;5069991;28;20021;-66
2021/12/04 11:48:12;;;;;;;6.88;4.68;;;6.10;99.90;;;;;;5068767;28;20259;-66
2021/12/04 11:50:41;;;;;;;7.03;5.22;;;6.20;99.90;;;;;;5052165;28;20044;-67
2021/12/04 11:53:11;;;;;;;6.22;5.25;;;6.20;99.90;;;;;;5068504;28;20066;-67
2021/12/04 11:55:41;;;;;;;5.93;4.50;;;6.20;99.90;;;;;;5068820;28;20028;-67
2021/12/04 11:58:28;;;;;;;7.75;4.72;;;6.30;99.90;;;;;;5069554;28;20045;-67
2021/12/04 12:00:59;;;;;;;6.88;4.90;;;6.20;99.90;;;;;;5069556;28;20028;-67
2021/12/04 12:03:28;;;;;;;5.55;4.47;;;6.30;99.90;;;;;;5051727;28;20024;-65
2021/12/04 12:05:56;;;;;;;5.68;4.72;;;6.40;99.90;;;;;;5068584;28;20017;-65
2021/12/04 12:08:31;;;;;;;5.07;4.18;;;6.30;99.90;;;;;;5047596;28;20033;-66
2021/12/04 12:11:01;;;;;;;4.93;4.03;;;6.30;99.90;;;;;;5055750;28;20087;-65
2021/12/04 12:13:37;;;;;;;5.70;4.38;;;6.40;99.90;;;;;;5054889;28;20056;-67
2021/12/04 12:16:09;;;;;;;6.53;4.63;;;6.40;99.90;;;;;;5056452;28;20032;-67
2021/12/04 12:18:56;;;;;;;5.53;4.63;;;6.40;99.90;;;;;;5056259;28;20029;-65
2021/12/04 12:21:28;;;;;;;6.78;5.30;;;6.30;99.90;;;;;;5054842;28;20021;-66
2021/12/04 12:27:17;;;;;;;6.88;5.15;;;6.30;99.90;;;;;;5054756;28;20116;-67
2021/12/04 12:36:10;;;;;;;6.10;5.00;;;6.10;99.90;;;;;;5055005;28;20488;-66
2021/12/04 12:38:46;;;;;;;6.65;5.25;;;6.20;99.90;;;;;;5054497;28;20036;-66
2021/12/04 12:46:55;;;;;;;6.50;5.30;;;6.20;99.90;;;;;;5071629;28;20349;-66
2021/12/04 12:49:42;;;;;;;6.93;5.47;;;6.20;99.90;;;;;;5071339;28;20021;-66
2021/12/04 12:52:24;;;;;;;6.25;5.20;;;6.10;99.90;;;;;;5071206;28;20019;-66
2021/12/04 12:55:00;;;;;;;6.50;5.47;;;6.20;99.90;;;;;;5054254;28;20079;-66
2021/12/04 12:57:30;;;;;;;6.35;5.10;;;6.20;99.90;;;;;;5069411;28;20079;-66
2021/12/04 13:11:49;;;;;;;7.80;5.25;;;6.10;99.90;;;;;;5089839;28;20051;-67
2021/12/04 13:14:22;;;;;;;6.97;4.55;;;6.10;99.90;;;;;;5090774;28;20036;-67
2021/12/04 13:16:52;;;;;;;4.65;4.18;;;6.10;99.90;;;;;;5072836;28;20119;-67
2021/12/04 13:19:20;;;;;;;4.43;4.03;;;6.10;99.90;;;;;;5090992;28;20017;-67
2021/12/04 13:21:50;;;;;;;6.22;4.85;;;6.10;99.90;;;;;;5089942;28;20052;-66
2021/12/04 13:24:17;;;;;;;6.22;4.22;;;6.10;99.90;;;;;;5089025;28;20423;-67
2021/12/04 13:26:46;;;;;;;7.32;4.45;;;6.10;99.90;;;;;;5089545;28;20020;-67
2021/12/04 13:29:15;;;;;;;6.18;4.45;;;6.10;99.90;;;;;;5089515;28;20025;-67
2021/12/04 13:31:41;;;;;;;7.55;4.38;;;6.10;99.90;;;;;;5091141;28;20017;-66
2021/12/04 13:34:09;;;;;;;6.45;4.72;;;6.00;99.90;;;;;;5090003;28;20078;-66
2021/12/04 13:36:35;;;;;;;5.43;4.70;;;5.90;99.90;;;;;;5072250;28;20032;-67
2021/12/04 13:39:07;;;;;;;7.88;5.10;;;5.90;99.90;;;;;;5089211;28;20024;-66
2021/12/04 13:41:35;;;;;;;5.35;4.25;;;5.90;99.90;;;;;;5090992;28;20028;-67
2021/12/04 13:44:02;;;;;;;6.50;5.03;;;5.90;99.90;;;;;;5072152;28;20027;-66
2021/12/04 13:46:36;;;;;;;6.05;4.30;;;5.90;99.90;;;;;;5090264;28;20044;-66
2021/12/04 13:49:03;;;;;;;4.88;4.35;;;5.90;99.90;;;;;;5088637;28;20025;-66
2021/12/04 13:51:29;;;;;;;6.00;4.55;;;5.90;99.90;;;;;;5088623;28;20031;-66
2021/12/04 13:53:54;;;;;;;5.25;4.45;;;5.90;99.90;;;;;;5090489;28;20028;-66
2021/12/04 13:56:22;;;;;;;7.00;5.25;;;5.90;99.90;;;;;;5071818;28;20474;-67
2021/12/04 13:58:54;;;;;;;6.38;5.15;;;5.90;99.90;;;;;;5089923;28;20508;-66
2021/12/04 14:01:21;;;;;;;7.22;5.30;;;5.90;99.90;;;;;;5089025;28;20074;-67
2021/12/04 14:03:47;;;;;;;8.77;5.22;;;6.00;99.90;;;;;;5089646;28;20051;-65
2021/12/04 14:06:16;;;;;;;6.55;5.10;;;5.90;99.90;;;;;;5088673;28;20024;-67
2021/12/04 14:08:54;;;;;;;8.63;5.00;;;5.90;99.90;;;;;;5088790;28;20110;-67
2021/12/04 14:11:32;;;;;;;5.97;4.32;;;5.90;99.90;;;;;;5088841;28;20030;-67
2021/12/04 14:13:59;;;;;;;7.18;5.20;;;5.90;99.90;;;;;;5090225;28;20027;-66
2021/12/04 14:16:26;;;;;;;8.50;5.22;;;6.00;99.90;;;;;;5079262;28;20025;-65
2021/12/04 14:18:52;;;;;;;7.43;5.28;;;5.90;99.90;;;;;;5075318;28;20583;-65
2021/12/04 14:21:18;;;;;;;8.23;5.60;;;5.90;99.90;;;;;;5058257;28;20024;-65
2021/12/04 14:23:47;;;;;;;7.97;5.80;;;5.90;99.90;;;;;;5074918;28;20025;-65
2021/12/04 14:26:15;;;;;;;8.73;5.82;;;5.90;99.90;;;;;;5075499;28;20369;-65
2021/12/04 14:28:43;;;;;;;8.68;5.57;;;5.80;99.90;;;;;;5076462;28;20106;-67
2021/12/04 14:31:11;;;;;;;7.80;5.63;;;5.80;99.90;;;;;;5074630;28;20024;-66
2021/12/04 14:33:39;;;;;;;10.02;6.47;;;5.70;99.90;;;;;;5057928;28;20496;-66
2021/12/04 14:36:05;;;;;;;10.73;7.05;;;5.70;99.90;;;;;;5075013;28;20495;-66
2021/12/04 14:38:31;;;;;;;11.50;7.05;;;5.70;99.90;;;;;;5075710;28;20369;-66
2021/12/04 14:41:03;;;;;;;10.15;7.20;;;5.60;99.90;;;;;;5076098;28;20024;-66
2021/12/04 14:43:34;;;;;;;10.73;7.10;;;5.60;99.90;;;;;;5076270;28;20029;-66
2021/12/04 14:46:01;;;;;;;11.00;7.72;;;5.60;99.90;;;;;;5076301;28;20021;-66
2021/12/04 14:48:34;;;;;;;11.25;7.60;;;5.60;99.90;;;;;;5075061;28;20045;-66
2021/12/04 14:51:06;;;;;;;11.32;7.97;;;5.60;99.90;;;;;;5074989;28;20024;-66
2021/12/04 14:53:34;;;;;;;13.30;7.93;;;5.50;99.90;;;;;;5058166;28;20032;-67
2021/12/04 14:56:06;;;;;;;11.25;7.95;;;5.50;99.90;;;;;;5074220;28;20036;-66
2021/12/04 14:58:32;;;;;;;14.23;7.82;;;5.50;99.90;;;;;;5074631;28;20021;-66
2021/12/04 15:01:05;;;;;;;15.73;8.02;;;5.50;99.90;;;;;;5074552;28;20381;-66
2021/12/04 15:03:43;;;;;;;12.75;8.43;;;5.40;99.90;;;;;;5073847;28;20106;-66
2021/12/04 15:06:12;;;;;;;13.73;9.02;;;5.40;99.90;;;;;;5057389;28;20020;-66
2021/12/04 15:08:41;;;;;;;14.82;9.75;;;5.40;99.90;;;;;;5075251;28;20048;-66
2021/12/04 15:11:14;;;;;;;18.65;10.23;;;5.40;99.90;;;;;;5075502;28;20066;-66
2021/12/04 15:13:50;;;;;;;13.35;9.55;;;5.30;99.90;;;;;;5075733;28;20025;-66
2021/12/04 15:16:19;;;;;;;15.45;9.80;;;5.30;99.90;;;;;;5073867;28;20136;-66
2021/12/04 15:18:44;;;;;;;17.50;9.63;;;5.20;99.90;;;;;;5075610;28;20024;-66
2021/12/04 15:21:15;;;;;;;13.15;9.40;;;5.20;99.90;;;;;;5073765;28;20478;-65
2021/12/04 15:23:44;;;;;;;14.38;9.10;;;5.20;99.90;;;;;;5074903;28;20039;-66
2021/12/04 15:26:16;;;;;;;13.70;9.40;;;5.20;99.90;;;;;;5075170;28;20027;-66
2021/12/04 15:28:46;;;;;;;14.50;9.73;;;5.10;99.90;;;;;;5073136;28;20013;-66
2021/12/04 15:31:12;;;;;;;13.38;9.48;;;5.10;99.90;;;;;;5073561;28;20543;-66
2021/12/04 15:33:41;;;;;;;13.75;9.90;;;5.10;99.90;;;;;;5056879;28;20052;-66
2021/12/04 15:36:11;;;;;;;17.65;10.73;;;5.10;99.90;;;;;;5074121;28;20346;-66
2021/12/04 15:38:43;;;;;;;15.88;10.35;;;5.10;99.90;;;;;;5057273;28;20064;-66